Current | Forecast
Updated: 1:00 PM JST on June 21, 2018
Observed at Fukushima, Japan
Temperature 73°F
Humidity 100%
Dew Point 73°F
Wind NNW at 10 mph
Pressure 29.62 in (Steady)
Conditions Mostly Cloudy
Visibility 6.2 miles
UV 6 out of 16
Clouds (FEW) : 2500 ft
Scattered Clouds (SCT) : 3000 ft
Mostly Cloudy (BKN) : 5000 ft
Yesterday's Maximum 66°F
Yesterday's Minimum 63°F approx.
Yesterday's Heating Degree Days 1 approx.
Sunrise4:19 AM JST
Sunset7:04 PM JST
Moon Rise12:18 PM JST
Moon Set12:06 AM JST
Moon PhaseMoon Phase
First Quarter
Raw METARMETAR RJSF 210400Z 33009KT 9999 FEW025 SCT030 BKN050 23/23 Q1003


Monday
. High: 84° F.
Tuesday
. High: 84° F.
Wednesday
. High: 71° F.
Thursday
. High: 78° F.
Friday
. High: 78° F.
Saturday
. High: 68° F.
Sunday
. High: 75° F.
Monday
. High: 77° F.

Units: English | Metric

Find the Weather for any City, State or Zipcode, or Country:

U.S. State List | Severe Weather | Tropical Storms | Ski Conditions
United States | Canada | Central America | South America | Asia | Europe | Australia | Africa | Islands

Weather Underground

© Copyright 2018
The Weather Company, LLC